createdAt,value
2018-10-19T00:02:20.350Z,12.13
2018-10-19T00:04:56.802Z,12.43
2018-10-19T00:07:27.197Z,11.10
2018-10-19T00:09:57.406Z,11.73
2018-10-19T00:12:27.782Z,12.57
2018-10-19T00:14:58.141Z,12.43
2018-10-19T00:17:28.232Z,12.03
2018-10-19T00:19:58.646Z,12.27
2018-10-19T00:22:29.041Z,12.20
2018-10-19T00:24:59.286Z,11.73
2018-10-19T00:27:29.882Z,11.83
2018-10-19T00:30:00.312Z,11.77
2018-10-19T00:32:30.536Z,11.97
2018-10-19T00:35:00.863Z,12.73
2018-10-19T00:37:30.995Z,12.37
2018-10-19T00:40:01.383Z,12.17
2018-10-19T00:42:31.514Z,11.80
2018-10-19T00:45:01.962Z,12.03
2018-10-19T00:47:33.509Z,11.53
2018-10-19T00:50:04.325Z,12.27
2018-10-19T00:52:34.985Z,11.23
2018-10-19T00:55:05.747Z,12.13
2018-10-19T00:57:36.319Z,12.23
2018-10-19T01:00:07.039Z,13.13
2018-10-19T01:02:37.712Z,11.90
2018-10-19T01:05:08.399Z,12.70
2018-10-19T01:07:39.161Z,12.03
2018-10-19T01:10:09.665Z,12.60
2018-10-19T01:12:40.199Z,12.60
2018-10-19T01:15:10.644Z,13.10
2018-10-19T01:17:41.559Z,13.57
2018-10-19T01:20:11.849Z,13.77
2018-10-19T01:22:42.408Z,13.77
2018-10-19T01:25:12.791Z,13.90
2018-10-19T01:27:43.593Z,14.83
2018-10-19T01:30:13.932Z,13.90
2018-10-19T01:32:44.588Z,14.73
2018-10-19T01:35:15.219Z,14.47
2018-10-19T01:37:45.729Z,15.17
2018-10-19T01:40:16.065Z,14.53
2018-10-19T01:42:46.234Z,15.20
2018-10-19T01:45:16.588Z,14.67
2018-10-19T01:47:47.061Z,14.43
2018-10-19T01:50:17.329Z,15.10
2018-10-19T01:52:47.908Z,15.40
2018-10-19T01:55:18.052Z,15.27
2018-10-19T01:57:48.465Z,16.87
2018-10-19T02:00:19.376Z,15.17
2018-10-19T02:02:49.551Z,16.17
2018-10-19T02:05:19.734Z,17.30
2018-10-19T02:07:50.235Z,16.57
2018-10-19T02:10:20.820Z,16.70
2018-10-19T02:12:51.255Z,17.53
2018-10-19T02:15:21.581Z,16.43
2018-10-19T02:17:51.788Z,17.93
2018-10-19T02:20:22.344Z,16.63
2018-10-19T02:22:52.765Z,18.20
2018-10-19T02:25:22.964Z,18.17
2018-10-19T02:27:53.320Z,17.77
2018-10-19T02:30:23.814Z,18.60
2018-10-19T02:32:54.192Z,18.53
2018-10-19T02:35:24.400Z,17.27
2018-10-19T02:37:54.587Z,18.33
2018-10-19T02:40:24.894Z,18.17
2018-10-19T02:42:55.086Z,17.47
2018-10-19T02:45:25.996Z,18.43
2018-10-19T02:47:56.272Z,18.53
2018-10-19T02:50:27.036Z,19.10
2018-10-19T02:52:57.479Z,17.67
2018-10-19T02:55:27.663Z,17.60
2018-10-19T02:57:58.097Z,17.70
2018-10-19T03:00:28.695Z,17.03
2018-10-19T03:02:59.255Z,17.17
2018-10-19T03:05:29.645Z,17.43
2018-10-19T03:07:59.799Z,17.03
2018-10-19T03:10:30.099Z,17.80
2018-10-19T03:13:00.286Z,17.93
2018-10-19T03:15:31.761Z,18.10
2018-10-19T03:18:02.189Z,17.03
2018-10-19T03:20:32.727Z,17.10
2018-10-19T03:23:02.967Z,18.40
2018-10-19T03:25:33.684Z,18.60
2018-10-19T03:28:04.069Z,17.30
2018-10-19T03:30:35.454Z,17.53
2018-10-19T03:33:06.422Z,18.33
2018-10-19T03:35:36.959Z,18.87
2018-10-19T03:38:08.986Z,18.40
2018-10-19T03:40:39.624Z,17.30
2018-10-19T03:43:10.899Z,16.53
2018-10-19T03:45:43.027Z,17.87
2018-10-19T03:48:13.594Z,16.37
2018-10-19T03:50:44.279Z,17.20
2018-10-19T03:53:14.604Z,16.97
2018-10-19T03:55:45.234Z,16.83
2018-10-19T03:58:15.975Z,16.77
2018-10-19T04:00:46.186Z,18.00
2018-10-19T04:03:16.688Z,16.37
2018-10-19T04:05:46.761Z,16.37
2018-10-19T04:08:17.086Z,17.13
2018-10-19T04:10:47.390Z,17.43
2018-10-19T04:13:17.771Z,16.17
2018-10-19T04:15:48.191Z,16.63
2018-10-19T04:18:18.487Z,17.17
2018-10-19T04:20:48.895Z,16.73
2018-10-19T04:23:19.260Z,17.00
2018-10-19T04:25:49.641Z,16.63
2018-10-19T04:28:19.971Z,17.43
2018-10-19T04:30:50.227Z,15.17
2018-10-19T04:33:20.555Z,16.17
2018-10-19T04:35:50.721Z,16.07
2018-10-19T04:38:21.422Z,16.73
2018-10-19T04:40:52.000Z,16.37
2018-10-19T04:43:22.596Z,16.83
2018-10-19T04:45:53.011Z,15.63
2018-10-19T04:48:23.314Z,16.80
2018-10-19T04:50:53.445Z,17.17
2018-10-19T04:53:23.760Z,16.10
2018-10-19T04:55:54.891Z,17.30
2018-10-19T04:58:26.358Z,17.13
2018-10-19T05:00:57.347Z,16.63
2018-10-19T05:03:28.327Z,17.57
2018-10-19T05:05:59.972Z,18.40
2018-10-19T05:08:30.642Z,17.57
2018-10-19T05:11:02.049Z,18.40
2018-10-19T05:13:32.910Z,18.37
2018-10-19T05:16:04.083Z,18.67
2018-10-19T05:18:35.195Z,18.63
2018-10-19T05:21:05.613Z,18.80
2018-10-19T05:23:36.425Z,18.37
2018-10-19T05:26:07.880Z,18.03
2018-10-19T05:28:38.125Z,18.47
2018-10-19T05:31:08.671Z,18.80
2018-10-19T05:33:38.737Z,19.57
2018-10-19T05:36:09.211Z,20.53
2018-10-19T05:38:39.467Z,20.47
2018-10-19T05:41:09.985Z,21.50
2018-10-19T05:43:40.737Z,21.17
2018-10-19T05:46:11.581Z,23.53
2018-10-19T05:48:42.491Z,21.70
2018-10-19T05:51:13.179Z,22.83
2018-10-19T05:53:43.944Z,23.03
2018-10-19T05:56:14.323Z,22.50
2018-10-19T05:58:44.935Z,22.17
2018-10-19T06:01:15.375Z,23.77
2018-10-19T06:03:45.991Z,23.67
2018-10-19T06:06:16.637Z,23.60
2018-10-19T06:08:46.972Z,24.17
2018-10-19T06:11:17.689Z,25.30
2018-10-19T06:13:48.350Z,25.27
2018-10-19T06:16:18.816Z,26.90
2018-10-19T06:18:49.353Z,27.73
2018-10-19T06:21:20.015Z,26.77
2018-10-19T06:23:50.330Z,25.73
2018-10-19T06:26:21.386Z,25.73
2018-10-19T06:28:51.780Z,27.93
2018-10-19T06:31:22.983Z,26.80
2018-10-19T06:33:53.748Z,28.83
2018-10-19T06:36:25.040Z,27.93
2018-10-19T06:38:55.603Z,30.77
2018-10-19T06:41:26.615Z,28.17
2018-10-19T06:43:57.492Z,27.73
2018-10-19T06:46:28.274Z,28.30
2018-10-19T06:48:59.467Z,27.00
2018-10-19T06:51:30.066Z,28.23
2018-10-19T06:54:00.923Z,27.10
2018-10-19T06:56:31.457Z,26.90
2018-10-19T06:59:02.315Z,27.50
2018-10-19T07:01:32.809Z,28.70
2018-10-19T07:04:03.259Z,28.00
2018-10-19T07:06:34.017Z,27.63
2018-10-19T07:09:07.362Z,26.70
2018-10-19T07:11:40.234Z,27.33
2018-10-19T07:14:10.935Z,27.60
2018-10-19T07:16:41.435Z,26.07
2018-10-19T07:19:11.840Z,25.03
2018-10-19T07:21:42.381Z,25.77
2018-10-19T07:24:13.119Z,25.40
2018-10-19T07:26:45.505Z,25.43
2018-10-19T07:29:16.208Z,26.20
2018-10-19T07:31:47.316Z,26.57
2018-10-19T07:34:17.772Z,25.53
2018-10-19T07:36:49.636Z,25.90
2018-10-19T07:39:20.001Z,25.20
2018-10-19T07:41:51.357Z,26.07
2018-10-19T07:44:21.663Z,27.77
2018-10-19T07:46:52.241Z,26.67
2018-10-19T07:49:25.441Z,27.60
2018-10-19T07:51:56.187Z,26.60
2018-10-19T07:54:26.896Z,27.73
2018-10-19T07:56:57.349Z,27.40
2018-10-19T07:59:28.015Z,27.43
2018-10-19T08:01:59.134Z,26.40
2018-10-19T08:04:29.817Z,26.73
2018-10-19T08:07:00.187Z,25.07
2018-10-19T08:09:31.191Z,26.23
2018-10-19T08:12:05.697Z,25.20
2018-10-19T08:14:38.054Z,25.30
2018-10-19T08:17:08.693Z,25.30
2018-10-19T08:19:39.184Z,24.13
2018-10-19T08:22:09.654Z,21.63
2018-10-19T08:24:40.380Z,22.77
2018-10-19T08:27:11.390Z,22.13
2018-10-19T08:29:42.233Z,21.83
2018-10-19T08:32:12.921Z,20.93
2018-10-19T08:34:43.224Z,20.27
2018-10-19T08:37:14.082Z,20.20
2018-10-19T08:39:45.058Z,20.97
2018-10-19T08:42:15.885Z,20.40
2018-10-19T08:44:46.829Z,20.93
2018-10-19T08:47:17.547Z,19.87
2018-10-19T08:49:48.460Z,20.93
2018-10-19T08:52:19.179Z,19.57
2018-10-19T08:54:49.239Z,19.37
2018-10-19T08:57:19.519Z,20.63
2018-10-19T08:59:49.865Z,19.63
2018-10-19T09:02:20.351Z,20.83
2018-10-19T09:04:50.753Z,19.97
2018-10-19T09:07:20.893Z,19.03
2018-10-19T09:09:51.123Z,21.07
2018-10-19T09:12:21.500Z,20.17
2018-10-19T09:14:56.481Z,20.37
2018-10-19T09:17:26.792Z,19.20
2018-10-19T09:19:57.059Z,19.40
2018-10-19T09:22:27.287Z,19.17
2018-10-19T09:24:57.862Z,19.17
2018-10-19T09:27:28.310Z,20.20
2018-10-19T09:29:58.916Z,19.77
2018-10-19T09:32:29.320Z,20.23
2018-10-19T09:34:59.945Z,20.43
2018-10-19T09:37:30.020Z,21.20
2018-10-19T09:40:00.438Z,20.40
2018-10-19T09:42:31.186Z,20.07
2018-10-19T09:45:01.640Z,19.73
2018-10-19T09:47:32.580Z,20.10
2018-10-19T09:50:04.054Z,20.50
2018-10-19T09:52:35.051Z,19.53
2018-10-19T09:55:06.775Z,18.97
2018-10-19T09:57:37.021Z,20.00
2018-10-19T10:00:16.290Z,20.27
2018-10-19T10:02:47.491Z,21.03
2018-10-19T10:05:18.169Z,20.63
2018-10-19T10:07:55.207Z,19.33
2018-10-19T10:10:26.854Z,20.70
2018-10-19T10:12:57.098Z,21.13
2018-10-19T10:15:27.603Z,20.20
2018-10-19T10:17:57.939Z,21.43
2018-10-19T10:20:28.896Z,21.47
2018-10-19T10:23:00.793Z,19.87
2018-10-19T10:25:31.280Z,19.60
2018-10-19T10:28:02.046Z,18.77
2018-10-19T10:30:32.778Z,18.80
2018-10-19T10:33:03.430Z,19.53
2018-10-19T10:35:34.056Z,18.50
2018-10-19T10:38:04.551Z,19.27
2018-10-19T10:40:36.092Z,18.80
2018-10-19T10:43:06.684Z,17.30
2018-10-19T10:45:36.786Z,18.87
2018-10-19T10:48:06.923Z,19.33
2018-10-19T10:50:38.451Z,17.93
2018-10-19T10:53:08.475Z,18.33
2018-10-19T10:55:38.371Z,18.07
2018-10-19T10:58:08.798Z,17.53
2018-10-19T11:00:39.195Z,18.27
2018-10-19T11:03:09.407Z,18.00
2018-10-19T11:05:39.625Z,18.87
2018-10-19T11:08:10.820Z,17.90
2018-10-19T11:10:41.241Z,19.03
2018-10-19T11:13:11.581Z,17.63
2018-10-19T11:15:42.180Z,18.87
2018-10-19T11:18:12.624Z,18.10
2018-10-19T11:20:43.229Z,18.70
2018-10-19T11:23:13.728Z,17.97
2018-10-19T11:25:44.539Z,18.93
2018-10-19T11:28:15.346Z,17.80
2018-10-19T11:30:45.875Z,17.50
2018-10-19T11:33:16.394Z,16.93
2018-10-19T11:35:47.184Z,17.63
2018-10-19T11:38:17.515Z,17.27
2018-10-19T11:40:48.527Z,18.30
2018-10-19T11:43:18.671Z,18.33
2018-10-19T11:45:49.754Z,20.37
2018-10-19T11:48:20.358Z,17.13
2018-10-19T11:50:51.385Z,17.97
2018-10-19T11:53:21.492Z,18.03
2018-10-19T11:55:52.482Z,18.67
2018-10-19T11:58:22.757Z,17.00
2018-10-19T12:00:55.517Z,16.93
2018-10-19T12:03:25.323Z,15.83
2018-10-19T12:06:06.680Z,17.53
2018-10-19T12:08:39.855Z,18.00
2018-10-19T12:11:10.631Z,17.03
2018-10-19T12:13:41.227Z,17.00
2018-10-19T12:16:12.955Z,17.30
2018-10-19T12:18:43.859Z,18.00
2018-10-19T12:21:15.300Z,17.10
2018-10-19T12:23:47.916Z,18.20
2018-10-19T12:26:18.244Z,17.37
2018-10-19T12:28:49.239Z,18.90
2018-10-19T12:31:19.440Z,17.77
2018-10-19T12:33:49.936Z,17.73
2018-10-19T12:36:20.138Z,18.23
2018-10-19T12:38:50.303Z,19.07
2018-10-19T12:41:20.684Z,19.97
2018-10-19T12:43:50.908Z,20.07
2018-10-19T12:46:35.953Z,21.03
2018-10-19T12:49:06.522Z,21.57
2018-10-19T12:51:38.395Z,20.27
2018-10-19T12:54:09.368Z,19.23
2018-10-19T12:56:40.445Z,21.07
2018-10-19T12:59:11.650Z,20.33
2018-10-19T13:01:42.807Z,20.15
2018-10-19T13:04:14.711Z,20.15
2018-10-19T13:06:46.315Z,20.05
2018-10-19T13:09:16.828Z,20.80
2018-10-19T13:11:47.413Z,20.30
2018-10-19T13:14:18.697Z,21.93
2018-10-19T13:16:50.302Z,20.83
2018-10-19T13:19:22.172Z,20.00
2018-10-19T13:21:55.081Z,21.80
2018-10-19T13:24:28.166Z,23.27
2018-10-19T13:27:01.473Z,24.60
2018-10-19T13:29:32.893Z,24.13
2018-10-19T13:32:04.657Z,24.13
2018-10-19T13:34:37.130Z,23.93
2018-10-19T13:37:08.552Z,24.33
2018-10-19T13:39:41.789Z,22.60
2018-10-19T13:42:13.787Z,23.97
2018-10-19T13:44:44.009Z,23.90
2018-10-19T13:47:14.639Z,24.07
2018-10-19T13:49:47.502Z,24.53
2018-10-19T13:52:18.443Z,21.23
2018-10-19T13:54:56.465Z,24.00
2018-10-19T13:57:27.327Z,23.67
2018-10-19T13:59:58.380Z,24.33
2018-10-19T14:02:30.653Z,24.23
2018-10-19T14:05:01.654Z,24.27
2018-10-19T14:07:31.928Z,23.23
2018-10-19T14:10:05.706Z,25.17
2018-10-19T14:12:37.328Z,22.83
2018-10-19T14:15:09.858Z,22.83
2018-10-19T14:17:41.381Z,22.63
2018-10-19T14:20:14.011Z,22.57
2018-10-19T14:22:44.924Z,21.77
2018-10-19T14:25:18.402Z,21.43
2018-10-19T14:27:48.761Z,22.27
2018-10-19T14:30:19.936Z,20.63
2018-10-19T14:32:51.455Z,21.47
2018-10-19T14:35:21.950Z,21.10
2018-10-19T14:37:52.296Z,18.80
2018-10-19T14:40:22.708Z,21.90
2018-10-19T14:42:53.107Z,21.17
2018-10-19T14:45:23.722Z,23.20
2018-10-19T14:47:53.790Z,23.93
2018-10-19T14:50:24.278Z,23.77
2018-10-19T14:52:54.368Z,26.33
2018-10-19T14:55:24.630Z,24.20
2018-10-19T14:57:54.686Z,26.50
2018-10-19T15:00:24.914Z,27.10
2018-10-19T15:02:55.369Z,25.37
2018-10-19T15:05:25.351Z,26.10
2018-10-19T15:07:56.044Z,27.83
2018-10-19T15:10:26.826Z,26.73
2018-10-19T15:12:56.619Z,26.77
2018-10-19T15:15:34.571Z,26.60
2018-10-19T15:18:04.737Z,26.97
2018-10-19T15:20:34.638Z,27.17
2018-10-19T15:23:06.109Z,28.20
2018-10-19T15:25:36.821Z,27.00
2018-10-19T15:28:07.075Z,27.50
2018-10-19T15:30:37.385Z,27.13
2018-10-19T15:33:07.663Z,28.47
2018-10-19T15:35:38.435Z,28.73
2018-10-19T15:38:09.195Z,29.00
2018-10-19T15:40:39.400Z,29.40
2018-10-19T15:43:10.680Z,28.97
2018-10-19T15:45:40.736Z,27.93
2018-10-19T15:48:11.780Z,29.90
2018-10-19T15:50:42.325Z,31.33
2018-10-19T15:53:13.652Z,30.03
2018-10-19T15:55:44.368Z,32.37
2018-10-19T15:58:15.028Z,33.00
2018-10-19T16:00:45.847Z,33.10
2018-10-19T16:03:16.632Z,33.17
2018-10-19T16:05:46.896Z,32.63
2018-10-19T16:08:17.720Z,30.70
2018-10-19T16:10:48.295Z,31.87
2018-10-19T16:13:18.808Z,32.03
2018-10-19T16:15:48.836Z,30.40
2018-10-19T16:18:19.130Z,32.57
2018-10-19T16:20:53.109Z,31.63
2018-10-19T16:23:23.126Z,32.50
2018-10-19T16:25:53.869Z,31.40
2018-10-19T16:28:24.097Z,31.47
2018-10-19T16:30:54.321Z,31.03
2018-10-19T16:33:24.461Z,31.33
2018-10-19T16:35:55.020Z,31.27
2018-10-19T16:38:25.159Z,77.03
2018-10-19T16:40:55.791Z,39.03
2018-10-19T16:43:26.569Z,33.37
2018-10-19T16:45:57.050Z,36.37
2018-10-19T16:48:28.149Z,32.17
2018-10-19T16:50:59.145Z,39.20
2018-10-19T16:53:29.647Z,34.63
2018-10-19T16:55:59.618Z,31.70
2018-10-19T16:58:29.958Z,32.57
2018-10-19T17:01:07.235Z,31.87
2018-10-19T17:03:40.095Z,30.90
2018-10-19T17:06:11.294Z,30.70
2018-10-19T17:08:55.927Z,31.47
2018-10-19T17:11:27.292Z,30.17
2018-10-19T17:14:03.029Z,31.27
2018-10-19T17:16:38.399Z,46.57
2018-10-19T17:19:13.827Z,37.67
2018-10-19T17:21:48.443Z,50.13
2018-10-19T17:24:22.821Z,40.23
2018-10-19T17:26:55.227Z,32.23
2018-10-19T17:29:26.540Z,32.57
2018-10-19T17:31:57.750Z,32.03
2018-10-19T17:34:29.961Z,30.80
2018-10-19T17:37:06.689Z,30.77
2018-10-19T17:39:38.417Z,29.13
2018-10-19T17:42:10.157Z,31.10
2018-10-19T17:44:45.202Z,29.53
2018-10-19T17:47:21.506Z,29.80
2018-10-19T17:49:57.833Z,30.37
2018-10-19T17:52:31.387Z,29.70
2018-10-19T17:55:02.403Z,28.77
2018-10-19T17:57:34.758Z,27.67
2018-10-19T18:00:05.960Z,29.73
2018-10-19T18:02:39.620Z,28.93
2018-10-19T18:05:11.365Z,27.53
2018-10-19T18:07:42.179Z,27.73
2018-10-19T18:10:12.527Z,26.87
2018-10-19T18:12:43.199Z,27.57
2018-10-19T18:15:15.437Z,26.37
2018-10-19T18:17:48.089Z,28.30
2018-10-19T18:20:22.055Z,26.60
2018-10-19T18:22:53.054Z,25.97
2018-10-19T18:25:24.348Z,26.37
2018-10-19T18:27:56.540Z,25.80
2018-10-19T18:30:31.448Z,26.23
2018-10-19T18:33:05.950Z,24.47
2018-10-19T18:35:39.088Z,23.87
2018-10-19T18:38:14.199Z,24.57
2018-10-19T18:40:45.792Z,25.03
2018-10-19T18:43:18.531Z,23.23
2018-10-19T18:45:51.036Z,23.50
2018-10-19T18:48:23.562Z,21.93
2018-10-19T18:50:54.810Z,23.10
2018-10-19T18:53:27.734Z,23.87
2018-10-19T18:56:00.782Z,22.27
2018-10-19T18:58:32.739Z,22.27
2018-10-19T19:01:03.766Z,23.50
2018-10-19T19:03:34.272Z,22.87
2018-10-19T19:06:04.967Z,22.30
2018-10-19T19:08:38.727Z,21.53
2018-10-19T19:11:09.810Z,21.30
2018-10-19T19:13:46.408Z,21.73
2018-10-19T19:16:21.983Z,19.73
2018-10-19T19:18:52.631Z,18.73
2018-10-19T19:21:23.893Z,18.20
2018-10-19T19:23:59.912Z,19.00
2018-10-19T19:26:30.783Z,18.37
2018-10-19T19:29:05.583Z,17.70
2018-10-19T19:31:36.621Z,18.17
2018-10-19T19:34:12.997Z,18.33
2018-10-19T19:36:44.999Z,19.13
2018-10-19T19:39:16.231Z,17.90
2018-10-19T19:41:52.897Z,19.67
2018-10-19T19:44:23.909Z,18.10
2018-10-19T19:46:55.178Z,18.17
2018-10-19T19:49:31.398Z,18.93
2018-10-19T19:52:02.949Z,19.20
2018-10-19T19:54:34.471Z,18.87
2018-10-19T19:57:05.525Z,19.77
2018-10-19T19:59:36.548Z,21.57
2018-10-19T20:02:07.077Z,20.40
2018-10-19T20:04:38.028Z,21.60
2018-10-19T20:07:08.676Z,23.50
2018-10-19T20:09:40.162Z,19.90
2018-10-19T20:12:10.923Z,21.37
2018-10-19T20:14:41.903Z,19.47
2018-10-19T20:17:12.766Z,18.70
2018-10-19T20:19:43.181Z,17.77
2018-10-19T20:22:13.942Z,18.50
2018-10-19T20:24:44.881Z,16.73
2018-10-19T20:27:15.252Z,16.13
2018-10-19T20:29:45.280Z,16.30
2018-10-19T20:32:15.574Z,15.77
2018-10-19T20:34:46.432Z,14.90
2018-10-19T20:37:18.438Z,14.43
2018-10-19T20:39:49.019Z,14.87
2018-10-19T20:42:20.030Z,14.00
2018-10-19T20:44:50.979Z,14.67
2018-10-19T20:47:22.458Z,14.93
2018-10-19T20:49:53.311Z,13.80
2018-10-19T20:52:24.370Z,15.10
2018-10-19T20:54:54.906Z,15.03
2018-10-19T20:57:26.044Z,15.13
2018-10-19T20:59:57.014Z,15.03
2018-10-19T21:02:28.087Z,14.90
2018-10-19T21:04:59.440Z,14.50
2018-10-19T21:07:29.899Z,15.13
2018-10-19T21:10:00.488Z,14.57
2018-10-19T21:12:31.579Z,14.43
2018-10-19T21:15:02.791Z,14.40
2018-10-19T21:17:33.454Z,13.77
2018-10-19T21:20:03.691Z,13.97
2018-10-19T21:22:33.771Z,15.40
2018-10-19T21:25:04.278Z,15.33
2018-10-19T21:27:34.469Z,15.50
2018-10-19T21:30:05.280Z,15.40
2018-10-19T21:32:36.439Z,14.47
2018-10-19T21:35:07.416Z,15.20
2018-10-19T21:37:37.735Z,14.77
2018-10-19T21:40:08.547Z,15.13
2018-10-19T21:42:39.123Z,15.30
2018-10-19T21:45:09.859Z,15.80
2018-10-19T21:47:40.131Z,16.27
2018-10-19T21:50:11.084Z,16.50
2018-10-19T21:52:41.699Z,15.70
2018-10-19T21:55:12.647Z,15.07
2018-10-19T21:57:43.395Z,14.57
2018-10-19T22:00:13.744Z,14.40
2018-10-19T22:02:44.554Z,15.57
2018-10-19T22:05:15.350Z,15.47
2018-10-19T22:07:46.204Z,16.33
2018-10-19T22:10:17.392Z,15.10
2018-10-19T22:12:47.378Z,15.43
2018-10-19T22:15:17.652Z,16.37
2018-10-19T22:17:48.070Z,17.57
2018-10-19T22:20:18.670Z,18.30
2018-10-19T22:22:48.977Z,16.80
2018-10-19T22:25:19.361Z,16.60
2018-10-19T22:27:49.573Z,16.90
2018-10-19T22:30:20.093Z,16.47
2018-10-19T22:32:50.586Z,16.53
2018-10-19T22:35:20.879Z,17.00
2018-10-19T22:37:51.201Z,16.97
2018-10-19T22:40:21.846Z,16.83
2018-10-19T22:42:52.417Z,16.40
2018-10-19T22:45:22.704Z,15.93
2018-10-19T22:47:52.980Z,15.43
2018-10-19T22:50:23.241Z,15.43
2018-10-19T22:52:53.713Z,16.50
2018-10-19T22:55:23.942Z,16.23
2018-10-19T22:57:54.287Z,16.47
2018-10-19T23:00:24.770Z,17.50
2018-10-19T23:02:55.145Z,17.13
2018-10-19T23:05:25.553Z,18.33
2018-10-19T23:07:55.861Z,18.93
2018-10-19T23:10:26.292Z,17.90
2018-10-19T23:12:56.865Z,18.63
2018-10-19T23:15:27.516Z,17.53
2018-10-19T23:17:58.004Z,17.47
2018-10-19T23:20:28.367Z,17.47
2018-10-19T23:22:59.227Z,15.97
2018-10-19T23:25:29.695Z,18.07
2018-10-19T23:28:00.121Z,16.03
2018-10-19T23:30:30.558Z,16.60
2018-10-19T23:33:01.639Z,15.33
2018-10-19T23:35:31.613Z,19.97
2018-10-19T23:38:01.755Z,16.57
2018-10-19T23:40:32.079Z,16.30
2018-10-19T23:43:02.075Z,15.40
2018-10-19T23:45:32.628Z,15.97
2018-10-19T23:48:02.792Z,14.67
2018-10-19T23:50:33.192Z,16.20
2018-10-19T23:53:03.706Z,16.67
2018-10-19T23:55:34.199Z,17.13
2018-10-19T23:58:04.670Z,17.43
